This is the latest recevied weather packets stored in our database for station/object OE3CJB-13. If no packets are shown the sender has not sent any weather packets the latest 10 day(s).
| Time | Temp. | Humidity | Pressure | Rain* | Wind** | Luminosity | Snow |
|---|---|---|---|---|---|---|---|
| 1777699865 | 8.33° C | 64% | 750.8 hPa | 0 mm | - | - | - |
| 1777698950 | 7.78° C | 66% | 750.8 hPa | 0 mm | - | - | - |
| 1777698041 | 7.22° C | 68% | 749.2 hPa | 0 mm | - | - | - |
| 1777697126 | 6.11° C | 69% | 744.5 hPa | 0 mm | - | - | - |
| 1777696214 | 5.56° C | 68% | 741.3 hPa | 0 mm | - | - | - |
| 1777695350 | 5.56° C | 68% | 742 hPa | 0 mm | - | - | - |
| 1777694489 | 5.56° C | 67% | 741.3 hPa | 0 mm | - | - | - |
| 1777693526 | 5.56° C | 67% | 742.1 hPa | 0 mm | - | - | - |
| 1777692614 | 5.56° C | 66% | 742 hPa | 0 mm | - | - | - |
| 1777691846 | 6.11° C | 66% | 743.5 hPa | 0 mm | - | - | - |
| 1777690840 | 6.11° C | 66% | 742.8 hPa | 0 mm | - | - | - |
| 1777690145 | 6.11° C | 65% | 743.6 hPa | 0 mm | - | - | - |
| 1777689014 | 6.11° C | 64% | 744.4 hPa | 0 mm | - | - | - |
| 1777688150 | 6.67° C | 63% | 744.5 hPa | 0 mm | - | - | - |
| 1777687289 | 6.67° C | 63% | 746 hPa | 0 mm | - | - | - |
| 1777686519 | 6.67° C | 62% | 746 hPa | 0 mm | - | - | - |
| 1777685414 | 7.22° C | 61% | 747.6 hPa | 0 mm | - | - | - |
| 1777684550 | 7.22° C | 61% | 748.4 hPa | 0 mm | - | - | - |
| 1777683689 | 7.22° C | 60% | 747.6 hPa | 0 mm | - | - | - |
| 1777682826 | 7.78° C | 60% | 747.6 hPa | 0 mm | - | - | - |
| 1777681814 | 7.78° C | 60% | 748.5 hPa | 0 mm | - | - | - |
| 1777680950 | 7.78° C | 59% | 749.3 hPa | 0 mm | - | - | - |
| 1777680041 | 7.78° C | 58% | 749.3 hPa | 0 mm | - | - | - |
| 1777679226 | 8.33° C | 57% | 751.7 hPa | 0 mm | - | - | - |
| 1777678214 | 8.33° C | 56% | 752.5 hPa | 0 mm | - | - | - |
* Rain latest hour (hover to see other rain measurements)
** Current wind speed in m/s (hover to see current wind gust speed)